Time;durP1;ratioP1;P1;durP2;ratioP2;P2;SDS_P1;SDS_P2;PMS_P1;PMS_P2;Temp;Humidity;BMP_temperature;BMP_pressure;BME280_temperature;BME280_humidity;BME280_pressure;Samples;Min_cycle;Max_cycle;Signal;HPM_P1;HPM_P2
2023/09/07 00:01:36;;;;;;;33.60;10.10;;;29.90;56.00;;;;;;5130670;27;20660;-71
2023/09/07 00:04:04;;;;;;;32.60;9.87;;;29.80;56.00;;;;;;5130388;27;20198;-71
2023/09/07 00:06:31;;;;;;;25.07;9.93;;;29.90;56.10;;;;;;5131168;27;20198;-71
2023/09/07 00:09:00;;;;;;;33.00;10.53;;;29.80;56.00;;;;;;5131920;27;20201;-71
2023/09/07 00:11:27;;;;;;;28.80;10.00;;;29.80;56.60;;;;;;5132275;27;20337;-71
2023/09/07 00:13:53;;;;;;;47.83;12.13;;;29.80;56.10;;;;;;5129820;27;20598;-72
2023/09/07 00:16:20;;;;;;;34.90;11.03;;;29.80;56.10;;;;;;5131103;27;20712;-72
2023/09/07 00:18:48;;;;;;;29.93;10.03;;;29.70;56.00;;;;;;5130436;27;20269;-72
2023/09/07 00:21:15;;;;;;;30.37;10.03;;;29.80;56.10;;;;;;5130493;27;20624;-72
2023/09/07 00:23:42;;;;;;;28.37;9.90;;;29.70;56.10;;;;;;5132041;27;20306;-72
2023/09/07 00:26:12;;;;;;;37.43;11.00;;;29.70;56.10;;;;;;5131450;27;20244;-71
2023/09/07 00:28:39;;;;;;;33.73;10.27;;;29.60;55.90;;;;;;5131068;27;20202;-72
2023/09/07 00:31:06;;;;;;;39.33;11.60;;;29.60;56.00;;;;;;5131388;27;20227;-71
2023/09/07 00:33:33;;;;;;;30.60;10.37;;;29.60;56.00;;;;;;5131889;27;20288;-71
2023/09/07 00:36:02;;;;;;;27.03;10.00;;;29.60;56.00;;;;;;5131359;27;20225;-72
2023/09/07 00:38:29;;;;;;;29.47;10.33;;;29.60;56.00;;;;;;5130584;27;20671;-71
2023/09/07 00:40:56;;;;;;;36.47;11.00;;;29.50;56.60;;;;;;5131779;27;20205;-71
2023/09/07 00:43:24;;;;;;;30.20;10.37;;;29.60;56.00;;;;;;5131853;27;20288;-71
2023/09/07 00:45:54;;;;;;;32.37;11.43;;;29.60;56.00;;;;;;5130528;27;20189;-71
2023/09/07 00:48:21;;;;;;;28.87;9.70;;;29.50;56.00;;;;;;5130809;27;20209;-71
2023/09/07 00:50:48;;;;;;;36.27;11.00;;;29.50;56.00;;;;;;5131948;27;20340;-71
2023/09/07 00:53:16;;;;;;;33.63;10.87;;;29.50;56.00;;;;;;5131009;27;20190;-71
2023/09/07 00:55:43;;;;;;;28.93;10.53;;;29.50;56.00;;;;;;5130537;27;20202;-71
2023/09/07 00:58:11;;;;;;;40.73;11.97;;;29.40;56.50;;;;;;5130861;27;20198;-71
2023/09/07 01:00:41;;;;;;;31.10;10.83;;;29.40;55.90;;;;;;5131411;27;20266;-74
2023/09/07 01:03:08;;;;;;;46.47;11.17;;;29.40;55.90;;;;;;5129435;27;20212;-71
2023/09/07 01:05:44;;;;;;;28.33;10.70;;;29.40;55.90;;;;;;5129434;27;20785;-72
2023/09/07 01:08:17;;;;;;;32.07;10.37;;;29.30;55.80;;;;;;5131406;27;20301;-72
2023/09/07 01:10:44;;;;;;;25.37;10.00;;;29.40;55.80;;;;;;5130150;27;20253;-72
2023/09/07 01:13:11;;;;;;;28.97;10.27;;;29.30;55.90;;;;;;5130749;27;20204;-71
2023/09/07 01:15:40;;;;;;;35.20;11.13;;;29.30;55.90;;;;;;5129689;27;20284;-72
2023/09/07 01:18:08;;;;;;;27.13;10.43;;;29.30;55.80;;;;;;5113550;27;20298;-75
2023/09/07 01:20:36;;;;;;;34.47;11.03;;;29.30;55.80;;;;;;5118333;27;20237;-71
2023/09/07 01:23:05;;;;;;;31.57;10.73;;;29.30;55.90;;;;;;5130314;27;20316;-74
2023/09/07 01:25:33;;;;;;;29.10;10.73;;;29.20;55.80;;;;;;5126814;27;20201;-75
2023/09/07 01:28:00;;;;;;;27.10;10.10;;;29.20;55.80;;;;;;5130152;27;20228;-72
2023/09/07 01:30:28;;;;;;;43.33;11.97;;;29.20;55.80;;;;;;5129186;27;20201;-74
2023/09/07 01:32:55;;;;;;;27.33;9.97;;;29.20;55.80;;;;;;5129728;27;20208;-74
2023/09/07 01:35:24;;;;;;;44.13;12.03;;;29.20;55.80;;;;;;5128374;27;20293;-73
2023/09/07 01:37:51;;;;;;;33.80;11.03;;;29.10;55.90;;;;;;5129422;27;20201;-72
2023/09/07 01:40:19;;;;;;;29.33;11.03;;;29.10;55.80;;;;;;5129741;27;20244;-75
2023/09/07 01:42:46;;;;;;;44.83;12.37;;;29.10;55.70;;;;;;5128222;27;20208;-75
2023/09/07 01:45:13;;;;;;;33.00;11.10;;;29.10;55.80;;;;;;5129229;27;20297;-75
2023/09/07 01:47:40;;;;;;;34.33;11.93;;;29.10;55.80;;;;;;5128886;27;20329;-73
2023/09/07 01:50:07;;;;;;;36.13;12.30;;;29.00;55.80;;;;;;5128942;27;20201;-75
2023/09/07 01:52:34;;;;;;;29.50;10.97;;;29.00;55.80;;;;;;5128793;27;20323;-72
2023/09/07 01:55:01;;;;;;;31.57;11.53;;;29.00;55.70;;;;;;5128569;27;20285;-75
2023/09/07 01:57:29;;;;;;;30.97;11.10;;;29.00;55.80;;;;;;5128243;27;20293;-75
2023/09/07 01:59:56;;;;;;;29.60;10.90;;;29.00;55.70;;;;;;5129257;27;20197;-76
2023/09/07 02:02:23;;;;;;;34.50;11.30;;;29.00;55.80;;;;;;5129008;27;20280;-76
2023/09/07 02:04:50;;;;;;;48.30;12.67;;;29.00;55.80;;;;;;5126506;27;20293;-74
2023/09/07 02:07:17;;;;;;;28.23;11.00;;;29.00;56.40;;;;;;5127969;27;20296;-72
2023/09/07 02:09:44;;;;;;;44.37;12.17;;;29.00;55.80;;;;;;5127640;27;22201;-71
2023/09/07 02:12:11;;;;;;;34.90;11.17;;;28.90;55.80;;;;;;5129278;27;20332;-73
2023/09/07 02:14:39;;;;;;;36.07;11.90;;;28.90;55.70;;;;;;5128115;27;20229;-71
2023/09/07 02:17:06;;;;;;;32.17;11.73;;;28.80;55.70;;;;;;5125955;27;20299;-71
2023/09/07 02:19:33;;;;;;;38.60;12.03;;;28.90;55.70;;;;;;5128395;27;20641;-72
2023/09/07 02:22:00;;;;;;;37.13;12.60;;;28.80;55.70;;;;;;5128836;27;20272;-71
2023/09/07 02:24:27;;;;;;;32.30;11.57;;;28.80;55.70;;;;;;5128530;27;20200;-72
2023/09/07 02:26:54;;;;;;;27.60;11.87;;;28.80;55.60;;;;;;5126415;27;20212;-71
2023/09/07 02:29:21;;;;;;;31.60;11.60;;;28.80;55.70;;;;;;5128905;27;20194;-71
2023/09/07 02:31:49;;;;;;;30.37;10.97;;;28.70;55.60;;;;;;5128568;27;20221;-71
2023/09/07 02:34:16;;;;;;;35.30;12.10;;;28.80;55.60;;;;;;5128758;27;20197;-71
2023/09/07 02:36:43;;;;;;;61.97;13.67;;;28.80;55.60;;;;;;5126775;27;20318;-72
2023/09/07 02:39:11;;;;;;;33.60;11.50;;;28.70;55.60;;;;;;5128749;27;20280;-73
2023/09/07 02:41:38;;;;;;;32.87;11.20;;;28.70;55.50;;;;;;5128335;27;20232;-71
2023/09/07 02:44:06;;;;;;;28.97;10.67;;;28.70;55.50;;;;;;5128811;27;20562;-72
2023/09/07 02:46:33;;;;;;;61.53;13.40;;;28.70;55.60;;;;;;5125295;27;20209;-72
2023/09/07 02:49:01;;;;;;;30.43;11.70;;;28.70;55.60;;;;;;5128749;27;20207;-74
2023/09/07 02:51:28;;;;;;;34.37;11.27;;;28.70;55.60;;;;;;5128433;27;20768;-71
2023/09/07 02:53:55;;;;;;;43.10;12.03;;;28.60;55.50;;;;;;5127536;27;20211;-71
2023/09/07 02:56:22;;;;;;;27.77;10.63;;;28.60;55.50;;;;;;5128155;27;20273;-71
2023/09/07 02:58:49;;;;;;;35.27;12.37;;;28.60;55.50;;;;;;5127347;27;20322;-71
2023/09/07 03:01:19;;;;;;;28.30;11.23;;;28.60;55.50;;;;;;5128361;27;20201;-71
2023/09/07 03:03:46;;;;;;;35.73;11.93;;;28.60;55.50;;;;;;5125180;27;20284;-72
2023/09/07 03:06:16;;;;;;;32.50;10.70;;;28.60;55.50;;;;;;5128441;27;20287;-71
2023/09/07 03:08:43;;;;;;;52.77;13.03;;;28.50;55.40;;;;;;5127382;27;20653;-70
2023/09/07 03:11:10;;;;;;;31.13;11.20;;;28.50;55.50;;;;;;5128596;27;20317;-70
2023/09/07 03:13:37;;;;;;;36.13;11.77;;;28.50;55.50;;;;;;5124781;27;20193;-74
2023/09/07 03:16:05;;;;;;;32.17;11.70;;;28.50;55.50;;;;;;5121990;27;20303;-71
2023/09/07 03:18:33;;;;;;;38.10;11.60;;;28.50;55.40;;;;;;5124151;27;20195;-72
2023/09/07 03:21:02;;;;;;;47.27;12.97;;;28.40;55.40;;;;;;5127441;27;20241;-71
2023/09/07 03:23:31;;;;;;;34.83;12.03;;;28.40;55.30;;;;;;5126918;27;20198;-72
2023/09/07 03:25:58;;;;;;;43.47;12.10;;;28.40;55.40;;;;;;5127179;27;20280;-71
2023/09/07 03:28:25;;;;;;;39.13;11.47;;;28.40;55.40;;;;;;5127693;27;20206;-71
2023/09/07 03:30:52;;;;;;;29.83;10.93;;;28.40;55.40;;;;;;5131994;27;20200;-71
2023/09/07 03:33:20;;;;;;;26.77;10.27;;;28.40;55.40;;;;;;5121617;27;20324;-71
2023/09/07 03:35:47;;;;;;;47.13;12.27;;;28.30;55.30;;;;;;5129262;27;20229;-71
2023/09/07 03:38:14;;;;;;;28.23;10.97;;;28.30;55.40;;;;;;5131528;27;20312;-72
2023/09/07 03:40:43;;;;;;;29.33;11.17;;;28.30;55.30;;;;;;5130849;27;20202;-71
2023/09/07 03:43:10;;;;;;;34.97;11.47;;;28.30;55.30;;;;;;5131360;27;20716;-72
2023/09/07 03:45:37;;;;;;;32.30;11.03;;;28.30;55.30;;;;;;5125502;27;20931;-71
2023/09/07 03:48:05;;;;;;;30.30;10.93;;;28.30;55.30;;;;;;5119597;27;20652;-72
2023/09/07 03:50:32;;;;;;;29.40;10.47;;;28.30;55.30;;;;;;5131590;27;20203;-73
2023/09/07 03:52:59;;;;;;;47.63;12.67;;;28.20;55.30;;;;;;5131596;27;20229;-71
2023/09/07 03:55:26;;;;;;;30.43;10.67;;;28.20;55.30;;;;;;5130538;27;20204;-71
2023/09/07 03:57:54;;;;;;;51.17;12.90;;;28.20;55.30;;;;;;5130991;27;20206;-71
2023/09/07 04:00:21;;;;;;;27.80;10.67;;;28.20;55.30;;;;;;5131093;27;20704;-71
2023/09/07 04:02:48;;;;;;;32.20;10.07;;;28.20;55.30;;;;;;5131000;27;20193;-75
2023/09/07 04:05:15;;;;;;;29.93;10.87;;;28.20;55.30;;;;;;5129976;27;20205;-72
2023/09/07 04:07:42;;;;;;;25.37;9.47;;;28.10;55.20;;;;;;5132496;27;20193;-71
2023/09/07 04:10:09;;;;;;;28.43;10.03;;;28.10;55.30;;;;;;5131699;27;20235;-71
2023/09/07 04:12:36;;;;;;;50.27;11.63;;;28.10;55.20;;;;;;5130918;27;20322;-71
2023/09/07 04:15:06;;;;;;;38.63;10.50;;;28.10;55.30;;;;;;5131630;27;20287;-71
2023/09/07 04:17:39;;;;;;;33.03;10.77;;;28.10;55.20;;;;;;5131615;27;20328;-71
2023/09/07 04:20:08;;;;;;;30.30;9.83;;;28.10;55.20;;;;;;5126760;27;20286;-71
2023/09/07 04:22:35;;;;;;;30.53;9.17;;;28.00;55.10;;;;;;5132222;27;20194;-70
2023/09/07 04:25:02;;;;;;;37.40;10.80;;;28.00;55.10;;;;;;5131721;27;20197;-74
2023/09/07 04:27:29;;;;;;;34.13;10.30;;;28.00;55.10;;;;;;5131116;27;20192;-74
2023/09/07 04:29:56;;;;;;;31.50;9.57;;;28.00;55.10;;;;;;5130246;27;20256;-75
2023/09/07 04:32:24;;;;;;;30.03;10.50;;;28.00;55.20;;;;;;5131783;27;20252;-74
2023/09/07 04:34:55;;;;;;;32.00;10.03;;;28.00;55.70;;;;;;5131279;27;20281;-72
2023/09/07 04:37:22;;;;;;;31.00;10.00;;;27.90;55.00;;;;;;5130219;27;20216;-70
2023/09/07 04:39:53;;;;;;;38.43;10.40;;;27.90;55.10;;;;;;5131048;27;20310;-70
2023/09/07 04:42:21;;;;;;;27.27;9.57;;;27.90;55.00;;;;;;5131434;27;20201;-70
2023/09/07 04:44:48;;;;;;;45.40;11.60;;;27.90;55.00;;;;;;5130742;27;20292;-72
2023/09/07 04:47:15;;;;;;;30.20;9.30;;;27.90;55.10;;;;;;5131494;27;20252;-73
2023/09/07 04:49:49;;;;;;;36.63;10.63;;;27.90;55.10;;;;;;5131240;27;20208;-75
2023/09/07 04:52:16;;;;;;;31.27;10.07;;;27.90;55.10;;;;;;5132546;27;20224;-74
2023/09/07 04:54:43;;;;;;;31.65;11.43;;;27.90;55.10;;;;;;5120678;27;20507;-74
2023/09/07 04:57:09;;;;;;;38.03;10.70;;;27.70;55.10;;;;;;5131405;27;20297;-74
2023/09/07 04:59:36;;;;;;;47.70;11.40;;;27.70;55.80;;;;;;5131066;27;22275;-73
2023/09/07 05:02:03;;;;;;;32.80;11.20;;;27.80;55.20;;;;;;5143666;27;20526;-74
2023/09/07 05:04:31;;;;;;;32.67;9.97;;;27.70;55.10;;;;;;5128552;27;20228;-74
2023/09/07 05:06:59;;;;;;;27.47;9.70;;;27.70;55.20;;;;;;5127264;27;20927;-73
2023/09/07 05:09:29;;;;;;;48.83;11.27;;;27.80;55.20;;;;;;5140190;27;20197;-73
2023/09/07 05:11:55;;;;;;;34.77;9.87;;;27.80;55.10;;;;;;5130924;27;20229;-72
2023/09/07 05:14:23;;;;;;;29.87;9.93;;;27.80;55.10;;;;;;5130205;27;20304;-73
2023/09/07 05:16:50;;;;;;;40.50;10.37;;;27.80;55.00;;;;;;5130512;27;20237;-73
2023/09/07 05:19:18;;;;;;;33.37;9.97;;;27.80;55.00;;;;;;5133077;27;20774;-73
2023/09/07 05:21:45;;;;;;;30.40;9.43;;;27.80;54.90;;;;;;5139039;27;20190;-73
2023/09/07 05:24:14;;;;;;;36.13;10.00;;;27.80;54.90;;;;;;5128452;27;20653;-73
2023/09/07 05:26:42;;;;;;;32.40;9.90;;;27.80;54.90;;;;;;5129699;27;20206;-73
2023/09/07 05:29:09;;;;;;;26.83;8.70;;;27.80;54.90;;;;;;5128993;27;20280;-73
2023/09/07 05:31:36;;;;;;;34.00;10.57;;;27.70;54.90;;;;;;5130264;27;20198;-73
2023/09/07 05:34:03;;;;;;;28.30;9.57;;;27.70;54.90;;;;;;5130244;27;20557;-74
2023/09/07 05:36:30;;;;;;;37.40;10.93;;;27.70;54.90;;;;;;5129483;27;21014;-74
2023/09/07 05:38:57;;;;;;;37.23;10.00;;;27.70;54.90;;;;;;5129672;27;20208;-74
2023/09/07 05:41:26;;;;;;;35.07;10.27;;;27.70;54.90;;;;;;5128182;27;20281;-73
2023/09/07 05:43:53;;;;;;;25.03;8.83;;;27.70;55.60;;;;;;5130368;27;20753;-74
2023/09/07 05:46:19;;;;;;;35.40;10.50;;;27.70;54.90;;;;;;5128362;27;20676;-74
2023/09/07 05:48:49;;;;;;;33.10;10.13;;;27.70;55.00;;;;;;5128376;27;20198;-74
2023/09/07 05:51:16;;;;;;;44.37;11.10;;;27.60;54.90;;;;;;5127876;27;21226;-76
2023/09/07 05:53:45;;;;;;;51.13;11.77;;;27.60;54.90;;;;;;5127998;27;20976;-75
2023/09/07 05:56:12;;;;;;;35.07;10.20;;;27.60;55.00;;;;;;5131321;27;20199;-75
2023/09/07 05:58:40;;;;;;;30.93;9.57;;;27.60;55.00;;;;;;5131670;27;20675;-74
2023/09/07 06:01:08;;;;;;;32.57;10.20;;;27.60;55.00;;;;;;5126428;27;20197;-74
2023/09/07 06:03:35;;;;;;;33.07;9.00;;;27.50;55.00;;;;;;5129240;27;20201;-77
2023/09/07 06:06:03;;;;;;;47.87;11.17;;;27.50;55.00;;;;;;5127427;27;20610;-76
2023/09/07 06:08:30;;;;;;;44.07;10.80;;;27.50;55.00;;;;;;5130538;27;20207;-74
2023/09/07 06:10:57;;;;;;;33.30;9.77;;;27.50;55.00;;;;;;5127001;27;20197;-76
2023/09/07 06:13:24;;;;;;;36.30;10.07;;;27.50;55.10;;;;;;5127814;27;20722;-75
2023/09/07 06:15:52;;;;;;;30.77;9.30;;;27.50;55.10;;;;;;5128418;27;20223;-75
2023/09/07 06:18:19;;;;;;;40.90;9.57;;;27.50;55.10;;;;;;5127773;27;20204;-76
2023/09/07 06:20:47;;;;;;;39.33;10.20;;;27.50;55.10;;;;;;5128197;27;20293;-75
2023/09/07 06:23:14;;;;;;;33.80;9.27;;;27.50;55.10;;;;;;5127776;27;20683;-77
2023/09/07 06:25:41;;;;;;;26.63;9.10;;;27.50;55.10;;;;;;5128152;27;20233;-76
2023/09/07 06:28:08;;;;;;;35.63;9.57;;;27.50;55.20;;;;;;5127891;27;20197;-75
2023/09/07 06:30:35;;;;;;;46.97;10.30;;;27.50;55.20;;;;;;5125486;27;20193;-75
2023/09/07 06:33:04;;;;;;;28.67;8.93;;;27.50;55.30;;;;;;5125947;27;20216;-76
2023/09/07 06:35:31;;;;;;;32.73;9.30;;;27.50;55.20;;;;;;5128925;27;20237;-82
2023/09/07 06:37:58;;;;;;;45.67;10.00;;;27.50;55.30;;;;;;5128274;27;20198;-76
2023/09/07 06:40:25;;;;;;;32.90;8.93;;;27.50;55.30;;;;;;5128345;27;20280;-74
2023/09/07 06:42:53;;;;;;;31.20;9.40;;;27.50;55.30;;;;;;5127717;27;20197;-74
2023/09/07 06:45:20;;;;;;;38.70;9.37;;;27.50;55.30;;;;;;5128406;27;20197;-76
2023/09/07 06:47:49;;;;;;;30.13;9.13;;;27.50;55.40;;;;;;5128234;27;20235;-73
2023/09/07 06:50:18;;;;;;;31.37;9.33;;;27.50;55.40;;;;;;5129237;27;20292;-76
2023/09/07 06:52:45;;;;;;;39.03;10.17;;;27.50;55.40;;;;;;5125768;27;20751;-75
2023/09/07 06:55:12;;;;;;;34.43;9.13;;;27.50;55.40;;;;;;5129102;27;20208;-75
2023/09/07 06:57:40;;;;;;;43.17;10.70;;;27.50;55.40;;;;;;5126872;27;20561;-75
2023/09/07 07:00:08;;;;;;;34.87;9.73;;;27.50;55.50;;;;;;5128558;27;20208;-83
2023/09/07 07:02:35;;;;;;;53.30;11.30;;;27.50;55.50;;;;;;5128203;27;20197;-79
2023/09/07 07:05:02;;;;;;;30.43;9.27;;;27.50;56.10;;;;;;5136892;27;20201;-77
2023/09/07 07:07:31;;;;;;;36.43;9.63;;;27.50;55.60;;;;;;5132392;27;20189;-76
2023/09/07 07:09:58;;;;;;;51.03;11.13;;;27.50;55.60;;;;;;5132018;27;20304;-76
2023/09/07 07:12:26;;;;;;;29.70;9.23;;;27.50;55.60;;;;;;5131748;27;20228;-76
2023/09/07 07:14:53;;;;;;;43.43;10.83;;;27.60;55.60;;;;;;5131796;27;20245;-77
2023/09/07 07:17:20;;;;;;;37.30;10.27;;;27.50;55.60;;;;;;5132039;27;20217;-79
2023/09/07 07:19:47;;;;;;;35.63;9.40;;;27.60;55.60;;;;;;5133176;27;20304;-75
2023/09/07 07:22:14;;;;;;;34.47;10.40;;;27.60;55.70;;;;;;5130758;27;20302;-79
2023/09/07 07:24:43;;;;;;;54.97;11.57;;;27.60;56.30;;;;;;5130722;27;20198;-78
2023/09/07 07:27:10;;;;;;;69.30;13.50;;;27.60;55.70;;;;;;5132788;27;20289;-76
2023/09/07 07:29:37;;;;;;;30.17;9.73;;;27.60;55.70;;;;;;5130339;27;20262;-77
2023/09/07 07:32:05;;;;;;;57.17;11.53;;;27.60;55.70;;;;;;5130290;27;20225;-78
2023/09/07 07:34:32;;;;;;;28.00;9.03;;;27.70;55.80;;;;;;5130687;27;20669;-77
2023/09/07 07:36:59;;;;;;;37.40;9.50;;;27.70;55.80;;;;;;5131456;27;20628;-74
2023/09/07 07:39:26;;;;;;;27.70;9.17;;;27.70;55.80;;;;;;5131130;27;20660;-74
2023/09/07 07:41:54;;;;;;;50.43;11.00;;;27.70;55.80;;;;;;5129877;27;21002;-75
2023/09/07 07:44:21;;;;;;;31.23;9.60;;;27.70;55.80;;;;;;5129568;27;20206;-76
2023/09/07 07:46:48;;;;;;;51.30;11.53;;;27.70;55.90;;;;;;5129467;27;20759;-74
2023/09/07 07:49:15;;;;;;;31.43;9.83;;;27.70;55.80;;;;;;5131894;27;20220;-74
2023/09/07 07:51:42;;;;;;;39.70;10.40;;;27.70;55.90;;;;;;5130817;27;20209;-73
2023/09/07 07:54:09;;;;;;;32.63;9.13;;;27.70;55.90;;;;;;5132402;27;20224;-71
2023/09/07 07:56:36;;;;;;;55.67;11.50;;;27.70;55.90;;;;;;5132113;27;20200;-72
2023/09/07 07:59:05;;;;;;;30.70;8.90;;;27.70;56.00;;;;;;5130236;27;20265;-73
2023/09/07 08:01:32;;;;;;;27.60;9.53;;;27.70;55.90;;;;;;5132126;27;20205;-72
2023/09/07 08:03:58;;;;;;;30.60;9.50;;;27.70;56.00;;;;;;5131966;27;20242;-73
2023/09/07 08:06:25;;;;;;;34.83;9.50;;;27.70;56.00;;;;;;5132002;27;20201;-73
2023/09/07 08:08:52;;;;;;;44.30;10.00;;;27.70;56.00;;;;;;5131181;27;20207;-72
2023/09/07 08:11:21;;;;;;;29.93;9.00;;;27.70;56.00;;;;;;5131469;27;20316;-72
2023/09/07 08:13:48;;;;;;;33.13;9.00;;;27.70;56.00;;;;;;5128127;27;21030;-73
2023/09/07 08:16:17;;;;;;;30.43;8.57;;;27.70;56.00;;;;;;5127477;27;20205;-72
2023/09/07 08:18:44;;;;;;;31.20;9.13;;;27.60;55.90;;;;;;5131033;27;20193;-72
2023/09/07 08:21:12;;;;;;;26.53;8.90;;;27.70;56.10;;;;;;5131698;27;20203;-75
2023/09/07 08:23:39;;;;;;;34.43;8.47;;;27.70;56.10;;;;;;5132062;27;20233;-71
2023/09/07 08:26:06;;;;;;;31.37;8.90;;;27.70;56.80;;;;;;5130265;27;20197;-71
2023/09/07 08:28:33;;;;;;;33.53;9.10;;;27.80;56.30;;;;;;5138606;27;20185;-70
2023/09/07 08:31:01;;;;;;;40.13;9.50;;;27.80;56.20;;;;;;5128887;27;20205;-71
2023/09/07 08:33:30;;;;;;;35.30;8.87;;;27.80;56.20;;;;;;5130545;27;20580;-71
2023/09/07 08:35:59;;;;;;;27.03;7.57;;;27.80;56.20;;;;;;5131935;27;20717;-71
2023/09/07 08:38:27;;;;;;;29.57;8.53;;;27.80;56.10;;;;;;5132395;27;20201;-73
2023/09/07 08:40:55;;;;;;;29.67;8.50;;;27.80;56.10;;;;;;5131107;27;20189;-71
2023/09/07 08:43:23;;;;;;;26.17;7.67;;;27.80;56.10;;;;;;5131363;27;20919;-71
2023/09/07 08:45:53;;;;;;;25.33;7.57;;;27.80;56.10;;;;;;5131232;27;20205;-71
2023/09/07 08:48:21;;;;;;;30.17;7.90;;;27.90;56.30;;;;;;5131676;27;20201;-72
2023/09/07 08:50:52;;;;;;;31.80;8.13;;;27.80;56.20;;;;;;5130637;27;20692;-71
2023/09/07 08:53:20;;;;;;;23.57;7.17;;;27.90;56.20;;;;;;5131398;27;20240;-72
2023/09/07 08:55:47;;;;;;;43.03;9.07;;;27.90;56.20;;;;;;5131122;27;20194;-71
2023/09/07 08:58:14;;;;;;;49.90;9.93;;;27.90;56.40;;;;;;5130634;27;20296;-71
2023/09/07 09:00:43;;;;;;;26.13;7.27;;;28.00;56.30;;;;;;5131481;27;20193;-71
2023/09/07 09:03:11;;;;;;;37.40;8.50;;;28.00;56.30;;;;;;5129489;27;20219;-71
2023/09/07 09:05:41;;;;;;;29.00;7.53;;;28.00;56.30;;;;;;5130460;27;20197;-71
2023/09/07 09:08:09;;;;;;;27.00;7.67;;;28.00;56.30;;;;;;5131173;27;20704;-70
2023/09/07 09:10:39;;;;;;;22.83;6.87;;;28.10;56.40;;;;;;5129961;27;20206;-71
2023/09/07 09:13:06;;;;;;;44.33;8.60;;;28.00;56.30;;;;;;5130273;27;20219;-72
2023/09/07 09:15:33;;;;;;;31.97;7.97;;;28.10;56.40;;;;;;5130188;27;21012;-71
2023/09/07 09:18:11;;;;;;;32.07;7.87;;;28.10;56.40;;;;;;5130389;27;20201;-72
2023/09/07 09:20:39;;;;;;;26.60;7.17;;;28.20;56.60;;;;;;5110307;28;20217;-71
2023/09/07 09:23:07;;;;;;;36.33;8.37;;;28.20;57.00;;;;;;5110139;28;20202;-72
2023/09/07 09:25:35;;;;;;;30.13;7.77;;;28.20;56.50;;;;;;5127895;27;20284;-71
2023/09/07 09:28:02;;;;;;;32.27;7.77;;;28.20;56.50;;;;;;5129457;27;20289;-73
2023/09/07 09:30:30;;;;;;;33.83;7.77;;;28.30;56.50;;;;;;5124495;27;20206;-75
2023/09/07 09:32:57;;;;;;;32.03;7.97;;;28.30;56.50;;;;;;5119022;27;20205;-72
2023/09/07 09:35:24;;;;;;;25.90;6.77;;;28.30;56.50;;;;;;5129403;27;20201;-74
2023/09/07 09:37:51;;;;;;;45.10;9.00;;;28.40;56.60;;;;;;5130359;27;20201;-74
2023/09/07 09:40:18;;;;;;;20.67;6.63;;;28.40;56.60;;;;;;5129786;27;20284;-74
2023/09/07 09:42:47;;;;;;;30.17;7.73;;;28.50;56.60;;;;;;5130317;27;20304;-74
2023/09/07 09:45:14;;;;;;;48.10;9.53;;;28.50;56.60;;;;;;5129204;27;20209;-73
2023/09/07 09:47:42;;;;;;;29.70;7.30;;;28.50;56.60;;;;;;5129275;27;20569;-74
2023/09/07 09:50:11;;;;;;;35.53;8.40;;;28.60;56.70;;;;;;5129507;27;20288;-73
2023/09/07 09:52:39;;;;;;;26.17;7.17;;;28.60;56.60;;;;;;5129645;27;20198;-74
2023/09/07 09:55:07;;;;;;;30.13;7.57;;;28.60;56.60;;;;;;5128346;27;20308;-75
2023/09/07 09:57:36;;;;;;;33.47;8.07;;;28.70;56.70;;;;;;5129336;27;20224;-74
2023/09/07 10:00:19;;;;;;;26.00;7.17;;;28.70;56.60;;;;;;5129289;27;20193;-74
2023/09/07 10:02:50;;;;;;;34.53;7.90;;;28.70;57.30;;;;;;5129437;27;20204;-74
2023/09/07 10:05:19;;;;;;;48.43;9.20;;;28.70;56.60;;;;;;5128736;27;20198;-72
2023/09/07 10:07:49;;;;;;;28.70;7.30;;;28.80;56.70;;;;;;5129467;27;20213;-71
2023/09/07 10:10:19;;;;;;;34.20;7.80;;;28.80;56.70;;;;;;5128667;27;20287;-74
2023/09/07 10:12:53;;;;;;;25.77;7.47;;;28.90;56.70;;;;;;5109292;28;20285;-71
2023/09/07 10:15:29;;;;;;;34.07;8.03;;;28.90;56.70;;;;;;5117243;27;20757;-71
2023/09/07 10:18:07;;;;;;;24.03;6.83;;;28.90;56.70;;;;;;5126080;27;20208;-72
2023/09/07 10:20:55;;;;;;;30.63;7.60;;;28.90;56.70;;;;;;5129524;27;20197;-74
2023/09/07 10:23:24;;;;;;;32.73;7.63;;;29.00;56.80;;;;;;5127978;27;20205;-71
2023/09/07 10:25:52;;;;;;;25.53;6.90;;;29.00;56.60;;;;;;5112981;27;20204;-72
2023/09/07 10:28:22;;;;;;;27.20;7.33;;;29.00;56.70;;;;;;5128343;27;20224;-73
2023/09/07 10:31:07;;;;;;;32.10;7.47;;;29.00;56.70;;;;;;5129191;27;20203;-71
2023/09/07 10:33:35;;;;;;;24.80;7.43;;;29.10;56.70;;;;;;5129270;27;20760;-71
2023/09/07 10:36:03;;;;;;;50.60;9.33;;;29.10;56.70;;;;;;5128567;27;20312;-71
2023/09/07 10:38:31;;;;;;;29.00;7.43;;;29.10;56.60;;;;;;5128553;27;20208;-71
2023/09/07 10:41:00;;;;;;;43.83;8.97;;;29.20;56.70;;;;;;5128189;27;20296;-73
2023/09/07 10:43:27;;;;;;;31.90;7.73;;;29.20;57.30;;;;;;5125540;27;20292;-71
2023/09/07 10:45:54;;;;;;;27.27;7.23;;;29.20;56.60;;;;;;5127847;27;20198;-71
2023/09/07 10:48:25;;;;;;;32.63;8.07;;;29.20;56.60;;;;;;5128120;27;20657;-72
2023/09/07 10:50:52;;;;;;;38.07;8.17;;;29.30;56.70;;;;;;5128876;27;20193;-71
2023/09/07 10:53:28;;;;;;;26.13;7.40;;;29.30;56.60;;;;;;5128125;27;20201;-71
2023/09/07 10:55:57;;;;;;;22.87;6.97;;;29.30;56.70;;;;;;5129269;27;20211;-71
2023/09/07 10:58:28;;;;;;;27.00;7.50;;;29.40;56.60;;;;;;5127292;27;20575;-71
2023/09/07 11:00:55;;;;;;;30.47;7.43;;;29.40;56.60;;;;;;5127918;27;20680;-71
2023/09/07 11:03:26;;;;;;;28.10;7.73;;;29.40;56.60;;;;;;5128450;27;20228;-72
2023/09/07 11:05:56;;;;;;;28.10;7.70;;;29.40;56.60;;;;;;5127196;27;20213;-71
2023/09/07 11:08:24;;;;;;;29.43;7.50;;;29.40;56.50;;;;;;5127032;27;20285;-71
2023/09/07 11:10:52;;;;;;;28.10;7.23;;;29.50;56.50;;;;;;5127424;27;20309;-72
2023/09/07 11:13:18;;;;;;;26.90;7.63;;;29.50;56.50;;;;;;5128752;27;20197;-71
2023/09/07 11:15:45;;;;;;;25.80;7.17;;;29.50;56.50;;;;;;5129362;27;20315;-72
2023/09/07 11:18:13;;;;;;;32.23;7.77;;;29.50;56.50;;;;;;5127826;27;20296;-71
2023/09/07 11:20:42;;;;;;;29.93;7.23;;;29.60;56.60;;;;;;5126744;27;20198;-71
2023/09/07 11:23:09;;;;;;;25.43;6.97;;;29.50;56.50;;;;;;5128697;27;20198;-71
2023/09/07 11:25:37;;;;;;;32.20;7.40;;;29.50;57.00;;;;;;5128186;27;20193;-71
2023/09/07 11:28:05;;;;;;;23.47;6.53;;;29.60;56.50;;;;;;5129343;27;20300;-71
2023/09/07 11:30:32;;;;;;;28.83;7.87;;;29.60;56.50;;;;;;5127258;27;20653;-71
2023/09/07 11:33:03;;;;;;;29.27;7.37;;;29.60;56.50;;;;;;5127612;27;20689;-71
2023/09/07 11:35:30;;;;;;;23.83;6.80;;;29.60;56.40;;;;;;5128349;27;20902;-72
2023/09/07 11:38:04;;;;;;;25.80;7.03;;;29.60;56.40;;;;;;5128623;27;20276;-74
2023/09/07 11:40:31;;;;;;;29.80;7.50;;;29.60;56.40;;;;;;5126675;27;20250;-74
2023/09/07 11:42:58;;;;;;;22.53;6.40;;;29.60;56.40;;;;;;5129513;27;20297;-71
2023/09/07 11:45:26;;;;;;;41.87;9.13;;;29.60;56.40;;;;;;5127114;27;20297;-74
2023/09/07 11:47:53;;;;;;;32.13;7.73;;;29.60;56.30;;;;;;5128600;27;20205;-72
2023/09/07 11:50:20;;;;;;;27.07;7.70;;;29.70;56.40;;;;;;5126924;27;20236;-71
2023/09/07 11:52:47;;;;;;;33.77;7.90;;;29.70;56.40;;;;;;5132268;27;20247;-72
2023/09/07 11:55:16;;;;;;;25.40;7.00;;;29.60;56.30;;;;;;5131272;27;20315;-73
2023/09/07 11:57:44;;;;;;;47.83;9.30;;;29.70;56.40;;;;;;5130953;27;20193;-74
2023/09/07 12:00:12;;;;;;;26.43;7.47;;;29.70;56.30;;;;;;5128062;27;20638;-73
2023/09/07 12:02:40;;;;;;;46.70;9.00;;;29.70;56.30;;;;;;5131303;27;20280;-73
2023/09/07 12:05:09;;;;;;;48.87;9.27;;;29.70;56.30;;;;;;5131205;27;20277;-73
2023/09/07 12:07:36;;;;;;;31.93;7.60;;;29.70;56.30;;;;;;5126221;27;20197;-74
2023/09/07 12:10:03;;;;;;;21.53;6.80;;;29.70;56.30;;;;;;5111809;28;20209;-74
2023/09/07 12:12:32;;;;;;;20.80;6.23;;;29.70;56.30;;;;;;5125884;27;20190;-73
2023/09/07 12:15:00;;;;;;;27.23;7.27;;;29.70;56.20;;;;;;5131350;27;20244;-74
2023/09/07 12:17:27;;;;;;;41.50;8.70;;;29.70;56.20;;;;;;5130932;27;20205;-72
2023/09/07 12:19:54;;;;;;;30.03;7.33;;;29.70;56.20;;;;;;5132435;27;20233;-74
2023/09/07 12:22:21;;;;;;;39.20;7.97;;;29.80;56.40;;;;;;5131400;27;20204;-74
2023/09/07 12:24:48;;;;;;;23.13;7.17;;;29.80;56.40;;;;;;5132366;27;20201;-74
2023/09/07 12:27:15;;;;;;;28.33;7.30;;;29.80;56.30;;;;;;5131429;27;20680;-73
2023/09/07 12:29:43;;;;;;;23.17;6.50;;;29.80;56.30;;;;;;5130785;27;20237;-74
2023/09/07 12:32:11;;;;;;;44.53;8.80;;;29.80;56.30;;;;;;5130913;27;20249;-75
2023/09/07 12:34:38;;;;;;;26.87;7.10;;;29.80;56.30;;;;;;5132377;27;20326;-73
2023/09/07 12:37:06;;;;;;;32.07;7.63;;;29.80;56.40;;;;;;5131339;27;20204;-75